sensor_id;sensor_type;location;lat;lon;timestamp;temperature;humidity
45868;DHT22;31582;45.490;7.860;2022-08-25T00:00:00;21.40;77.50
45868;DHT22;31582;45.490;7.860;2022-08-25T00:02:27;21.40;77.50
45868;DHT22;31582;45.490;7.860;2022-08-25T00:04:55;21.40;77.30
45868;DHT22;31582;45.490;7.860;2022-08-25T00:07:22;21.40;77.20
45868;DHT22;31582;45.490;7.860;2022-08-25T00:09:49;21.30;77.50
45868;DHT22;31582;45.490;7.860;2022-08-25T00:12:16;21.30;78.10
45868;DHT22;31582;45.490;7.860;2022-08-25T00:14:43;21.30;78.30
45868;DHT22;31582;45.490;7.860;2022-08-25T00:17:10;21.30;78.60
45868;DHT22;31582;45.490;7.860;2022-08-25T00:19:37;21.30;78.50
45868;DHT22;31582;45.490;7.860;2022-08-25T00:22:04;21.20;78.50
45868;DHT22;31582;45.490;7.860;2022-08-25T00:24:31;21.20;78.70
45868;DHT22;31582;45.490;7.860;2022-08-25T00:26:58;21.20;79.10
45868;DHT22;31582;45.490;7.860;2022-08-25T00:29:27;21.10;79.10
45868;DHT22;31582;45.490;7.860;2022-08-25T00:31:54;21.10;79.40
45868;DHT22;31582;45.490;7.860;2022-08-25T00:34:22;21.00;79.40
45868;DHT22;31582;45.490;7.860;2022-08-25T00:36:49;21.00;79.10
45868;DHT22;31582;45.490;7.860;2022-08-25T00:39:18;21.00;79.40
45868;DHT22;31582;45.490;7.860;2022-08-25T00:41:47;21.00;80.00
45868;DHT22;31582;45.490;7.860;2022-08-25T00:44:14;20.90;80.00
45868;DHT22;31582;45.490;7.860;2022-08-25T00:46:46;20.90;79.80
45868;DHT22;31582;45.490;7.860;2022-08-25T00:49:14;20.90;79.50
45868;DHT22;31582;45.490;7.860;2022-08-25T00:54:46;20.80;79.50
45868;DHT22;31582;45.490;7.860;2022-08-25T00:57:16;20.70;79.60
45868;DHT22;31582;45.490;7.860;2022-08-25T00:59:47;20.70;80.00
45868;DHT22;31582;45.490;7.860;2022-08-25T01:02:15;20.70;80.10
45868;DHT22;31582;45.490;7.860;2022-08-25T01:04:42;20.70;80.20
45868;DHT22;31582;45.490;7.860;2022-08-25T01:07:15;20.60;80.50
45868;DHT22;31582;45.490;7.860;2022-08-25T01:09:43;20.60;80.70
45868;DHT22;31582;45.490;7.860;2022-08-25T01:12:11;20.60;80.50
45868;DHT22;31582;45.490;7.860;2022-08-25T01:14:38;20.50;80.40
45868;DHT22;31582;45.490;7.860;2022-08-25T01:17:05;20.50;80.10
45868;DHT22;31582;45.490;7.860;2022-08-25T01:19:31;20.50;80.10
45868;DHT22;31582;45.490;7.860;2022-08-25T01:22:01;20.50;80.10
45868;DHT22;31582;45.490;7.860;2022-08-25T01:24:36;20.40;80.60
45868;DHT22;31582;45.490;7.860;2022-08-25T01:27:04;20.40;80.70
45868;DHT22;31582;45.490;7.860;2022-08-25T01:29:31;20.30;80.90
45868;DHT22;31582;45.490;7.860;2022-08-25T01:31:59;20.30;81.00
45868;DHT22;31582;45.490;7.860;2022-08-25T01:34:27;20.20;81.00
45868;DHT22;31582;45.490;7.860;2022-08-25T01:36:55;20.20;81.00
45868;DHT22;31582;45.490;7.860;2022-08-25T01:39:22;20.20;80.90
45868;DHT22;31582;45.490;7.860;2022-08-25T01:44:25;20.20;81.50
45868;DHT22;31582;45.490;7.860;2022-08-25T01:46:52;20.20;81.40
45868;DHT22;31582;45.490;7.860;2022-08-25T01:49:20;20.20;81.30
45868;DHT22;31582;45.490;7.860;2022-08-25T01:51:48;20.20;81.10
45868;DHT22;31582;45.490;7.860;2022-08-25T01:54:16;20.20;81.10
45868;DHT22;31582;45.490;7.860;2022-08-25T01:56:43;20.20;80.90
45868;DHT22;31582;45.490;7.860;2022-08-25T01:59:10;20.10;80.70
45868;DHT22;31582;45.490;7.860;2022-08-25T02:01:39;20.20;80.90
45868;DHT22;31582;45.490;7.860;2022-08-25T02:04:06;20.20;80.40
45868;DHT22;31582;45.490;7.860;2022-08-25T02:06:33;20.20;80.00
45868;DHT22;31582;45.490;7.860;2022-08-25T02:09:03;20.20;78.80
45868;DHT22;31582;45.490;7.860;2022-08-25T02:11:31;20.30;77.50
45868;DHT22;31582;45.490;7.860;2022-08-25T02:13:59;20.40;76.20
45868;DHT22;31582;45.490;7.860;2022-08-25T02:16:27;20.50;74.40
45868;DHT22;31582;45.490;7.860;2022-08-25T02:18:55;20.60;73.20
45868;DHT22;31582;45.490;7.860;2022-08-25T02:21:22;20.80;72.50
45868;DHT22;31582;45.490;7.860;2022-08-25T02:23:49;20.80;71.50
45868;DHT22;31582;45.490;7.860;2022-08-25T02:26:16;21.00;71.00
45868;DHT22;31582;45.490;7.860;2022-08-25T02:28:45;21.00;70.60
45868;DHT22;31582;45.490;7.860;2022-08-25T02:31:12;21.10;70.20
45868;DHT22;31582;45.490;7.860;2022-08-25T02:33:39;21.10;70.10
45868;DHT22;31582;45.490;7.860;2022-08-25T02:36:06;21.20;69.90
45868;DHT22;31582;45.490;7.860;2022-08-25T02:38:33;21.20;68.70
45868;DHT22;31582;45.490;7.860;2022-08-25T02:41:00;21.30;68.40
45868;DHT22;31582;45.490;7.860;2022-08-25T02:43:33;21.30;68.30
45868;DHT22;31582;45.490;7.860;2022-08-25T02:45:59;21.40;68.00
45868;DHT22;31582;45.490;7.860;2022-08-25T02:48:26;21.40;67.90
45868;DHT22;31582;45.490;7.860;2022-08-25T02:50:53;21.40;67.70
45868;DHT22;31582;45.490;7.860;2022-08-25T02:53:20;21.40;67.40
45868;DHT22;31582;45.490;7.860;2022-08-25T02:55:47;21.40;67.20
45868;DHT22;31582;45.490;7.860;2022-08-25T02:58:14;21.50;67.20
45868;DHT22;31582;45.490;7.860;2022-08-25T03:00:41;21.50;66.50
45868;DHT22;31582;45.490;7.860;2022-08-25T03:03:08;21.60;66.20
45868;DHT22;31582;45.490;7.860;2022-08-25T03:05:35;21.60;66.10
45868;DHT22;31582;45.490;7.860;2022-08-25T03:08:02;21.60;65.70
45868;DHT22;31582;45.490;7.860;2022-08-25T03:10:30;21.60;65.60
45868;DHT22;31582;45.490;7.860;2022-08-25T03:12:57;21.70;65.50
45868;DHT22;31582;45.490;7.860;2022-08-25T03:15:24;21.70;65.40
45868;DHT22;31582;45.490;7.860;2022-08-25T03:17:56;21.70;65.40
45868;DHT22;31582;45.490;7.860;2022-08-25T03:20:25;21.70;65.30
45868;DHT22;31582;45.490;7.860;2022-08-25T03:22:53;21.70;64.90
45868;DHT22;31582;45.490;7.860;2022-08-25T03:25:20;21.70;64.70
45868;DHT22;31582;45.490;7.860;2022-08-25T03:28:06;21.70;64.70
45868;DHT22;31582;45.490;7.860;2022-08-25T03:30:33;21.70;64.70
45868;DHT22;31582;45.490;7.860;2022-08-25T03:33:00;21.70;64.50
45868;DHT22;31582;45.490;7.860;2022-08-25T03:35:27;21.70;64.30
45868;DHT22;31582;45.490;7.860;2022-08-25T03:37:56;21.70;64.20
45868;DHT22;31582;45.490;7.860;2022-08-25T03:40:24;21.70;64.20
45868;DHT22;31582;45.490;7.860;2022-08-25T03:42:52;21.70;64.20
45868;DHT22;31582;45.490;7.860;2022-08-25T03:45:19;21.80;64.00
45868;DHT22;31582;45.490;7.860;2022-08-25T03:47:46;21.80;63.80
45868;DHT22;31582;45.490;7.860;2022-08-25T03:50:14;21.70;63.80
45868;DHT22;31582;45.490;7.860;2022-08-25T03:52:41;21.80;63.50
45868;DHT22;31582;45.490;7.860;2022-08-25T03:55:09;21.80;63.20
45868;DHT22;31582;45.490;7.860;2022-08-25T03:57:36;21.80;63.20
45868;DHT22;31582;45.490;7.860;2022-08-25T04:00:04;21.80;63.20
45868;DHT22;31582;45.490;7.860;2022-08-25T04:02:31;21.80;63.20
45868;DHT22;31582;45.490;7.860;2022-08-25T04:04:59;21.80;63.10
45868;DHT22;31582;45.490;7.860;2022-08-25T04:07:26;21.80;63.20
45868;DHT22;31582;45.490;7.860;2022-08-25T04:09:53;21.70;63.30
45868;DHT22;31582;45.490;7.860;2022-08-25T04:12:20;21.70;63.40
45868;DHT22;31582;45.490;7.860;2022-08-25T04:14:48;21.70;63.40
45868;DHT22;31582;45.490;7.860;2022-08-25T04:17:15;21.70;63.40
45868;DHT22;31582;45.490;7.860;2022-08-25T04:19:42;21.70;63.30
45868;DHT22;31582;45.490;7.860;2022-08-25T04:22:09;21.70;63.00
45868;DHT22;31582;45.490;7.860;2022-08-25T04:24:38;21.70;63.00
45868;DHT22;31582;45.490;7.860;2022-08-25T04:27:05;21.80;62.90
45868;DHT22;31582;45.490;7.860;2022-08-25T04:29:32;21.80;63.10
45868;DHT22;31582;45.490;7.860;2022-08-25T04:31:59;21.70;63.00
45868;DHT22;31582;45.490;7.860;2022-08-25T04:34:26;21.70;63.20
45868;DHT22;31582;45.490;7.860;2022-08-25T04:37:00;21.70;63.30
45868;DHT22;31582;45.490;7.860;2022-08-25T04:39:28;21.70;63.40
45868;DHT22;31582;45.490;7.860;2022-08-25T04:41:54;21.70;63.30
45868;DHT22;31582;45.490;7.860;2022-08-25T04:44:21;21.70;63.20
45868;DHT22;31582;45.490;7.860;2022-08-25T04:46:48;21.70;63.00
45868;DHT22;31582;45.490;7.860;2022-08-25T04:49:15;21.70;63.00
45868;DHT22;31582;45.490;7.860;2022-08-25T04:51:42;21.70;63.00
45868;DHT22;31582;45.490;7.860;2022-08-25T04:54:10;21.70;63.10
45868;DHT22;31582;45.490;7.860;2022-08-25T04:56:40;21.70;63.10
45868;DHT22;31582;45.490;7.860;2022-08-25T04:59:09;21.70;63.20
45868;DHT22;31582;45.490;7.860;2022-08-25T05:01:36;21.70;63.20
45868;DHT22;31582;45.490;7.860;2022-08-25T05:04:04;21.60;63.30
45868;DHT22;31582;45.490;7.860;2022-08-25T05:06:32;21.60;63.30
45868;DHT22;31582;45.490;7.860;2022-08-25T05:08:59;21.60;63.60
45868;DHT22;31582;45.490;7.860;2022-08-25T05:11:27;21.50;63.80
45868;DHT22;31582;45.490;7.860;2022-08-25T05:13:55;21.50;64.10
45868;DHT22;31582;45.490;7.860;2022-08-25T05:16:22;21.50;64.10
45868;DHT22;31582;45.490;7.860;2022-08-25T05:18:50;21.50;64.10
45868;DHT22;31582;45.490;7.860;2022-08-25T05:21:21;21.50;64.00
45868;DHT22;31582;45.490;7.860;2022-08-25T05:23:48;21.50;63.90
45868;DHT22;31582;45.490;7.860;2022-08-25T05:26:19;21.50;63.80
45868;DHT22;31582;45.490;7.860;2022-08-25T05:28:48;21.60;63.50
45868;DHT22;31582;45.490;7.860;2022-08-25T05:31:16;21.60;63.10
45868;DHT22;31582;45.490;7.860;2022-08-25T05:33:43;21.70;63.10
45868;DHT22;31582;45.490;7.860;2022-08-25T05:36:11;21.70;62.70
45868;DHT22;31582;45.490;7.860;2022-08-25T05:38:38;21.80;62.20
45868;DHT22;31582;45.490;7.860;2022-08-25T05:41:07;21.90;61.90
45868;DHT22;31582;45.490;7.860;2022-08-25T05:43:36;21.90;62.10
45868;DHT22;31582;45.490;7.860;2022-08-25T05:46:03;22.00;61.70
45868;DHT22;31582;45.490;7.860;2022-08-25T05:48:30;22.10;61.70
45868;DHT22;31582;45.490;7.860;2022-08-25T05:50:58;22.10;61.50
45868;DHT22;31582;45.490;7.860;2022-08-25T05:53:26;22.20;61.40
45868;DHT22;31582;45.490;7.860;2022-08-25T05:55:56;22.20;60.80
45868;DHT22;31582;45.490;7.860;2022-08-25T05:58:24;22.30;60.30
45868;DHT22;31582;45.490;7.860;2022-08-25T06:00:53;22.40;60.40
45868;DHT22;31582;45.490;7.860;2022-08-25T06:03:20;22.40;59.70
45868;DHT22;31582;45.490;7.860;2022-08-25T06:05:47;22.50;59.30
45868;DHT22;31582;45.490;7.860;2022-08-25T06:08:14;22.60;59.70
45868;DHT22;31582;45.490;7.860;2022-08-25T06:10:41;22.60;59.80
45868;DHT22;31582;45.490;7.860;2022-08-25T06:13:08;22.60;59.60
45868;DHT22;31582;45.490;7.860;2022-08-25T06:15:35;22.70;59.10
45868;DHT22;31582;45.490;7.860;2022-08-25T06:18:02;22.70;59.20
45868;DHT22;31582;45.490;7.860;2022-08-25T06:20:29;22.70;59.60
45868;DHT22;31582;45.490;7.860;2022-08-25T06:22:56;22.70;59.80
45868;DHT22;31582;45.490;7.860;2022-08-25T06:25:24;22.80;59.80
45868;DHT22;31582;45.490;7.860;2022-08-25T06:27:52;22.80;59.90
45868;DHT22;31582;45.490;7.860;2022-08-25T06:30:20;22.80;59.70
45868;DHT22;31582;45.490;7.860;2022-08-25T06:32:54;22.80;59.00
45868;DHT22;31582;45.490;7.860;2022-08-25T06:35:20;22.80;59.00
45868;DHT22;31582;45.490;7.860;2022-08-25T06:37:48;22.80;59.20
45868;DHT22;31582;45.490;7.860;2022-08-25T06:40:15;22.90;59.20
45868;DHT22;31582;45.490;7.860;2022-08-25T06:42:46;22.90;59.10
45868;DHT22;31582;45.490;7.860;2022-08-25T06:45:13;22.90;59.10
45868;DHT22;31582;45.490;7.860;2022-08-25T06:47:40;22.90;59.10
45868;DHT22;31582;45.490;7.860;2022-08-25T06:50:07;23.00;58.60
45868;DHT22;31582;45.490;7.860;2022-08-25T06:52:34;23.00;59.20
45868;DHT22;31582;45.490;7.860;2022-08-25T06:55:01;23.10;58.60
45868;DHT22;31582;45.490;7.860;2022-08-25T06:57:28;23.10;57.90
45868;DHT22;31582;45.490;7.860;2022-08-25T06:59:58;23.20;57.30
45868;DHT22;31582;45.490;7.860;2022-08-25T07:02:25;23.40;57.30
45868;DHT22;31582;45.490;7.860;2022-08-25T07:04:52;23.40;56.90
45868;DHT22;31582;45.490;7.860;2022-08-25T07:07:19;23.50;56.80
45868;DHT22;31582;45.490;7.860;2022-08-25T07:09:46;23.60;56.50
45868;DHT22;31582;45.490;7.860;2022-08-25T07:12:13;23.60;56.60
45868;DHT22;31582;45.490;7.860;2022-08-25T07:14:40;23.70;56.80
45868;DHT22;31582;45.490;7.860;2022-08-25T07:17:19;23.80;56.20
45868;DHT22;31582;45.490;7.860;2022-08-25T07:19:48;23.90;56.00
45868;DHT22;31582;45.490;7.860;2022-08-25T07:22:22;24.00;55.80
45868;DHT22;31582;45.490;7.860;2022-08-25T07:24:49;24.10;55.40
45868;DHT22;31582;45.490;7.860;2022-08-25T07:27:16;24.20;55.50
45868;DHT22;31582;45.490;7.860;2022-08-25T07:29:43;24.30;55.40
45868;DHT22;31582;45.490;7.860;2022-08-25T07:32:10;24.40;54.30
45868;DHT22;31582;45.490;7.860;2022-08-25T07:34:36;24.60;53.70
45868;DHT22;31582;45.490;7.860;2022-08-25T07:37:22;24.70;53.40
45868;DHT22;31582;45.490;7.860;2022-08-25T07:40:11;24.90;53.60
45868;DHT22;31582;45.490;7.860;2022-08-25T07:42:39;25.00;53.30
45868;DHT22;31582;45.490;7.860;2022-08-25T07:45:06;25.20;52.30
45868;DHT22;31582;45.490;7.860;2022-08-25T07:47:33;25.40;53.10
45868;DHT22;31582;45.490;7.860;2022-08-25T07:50:02;25.50;52.90
45868;DHT22;31582;45.490;7.860;2022-08-25T07:52:31;25.70;52.60
45868;DHT22;31582;45.490;7.860;2022-08-25T07:54:59;25.80;51.30
45868;DHT22;31582;45.490;7.860;2022-08-25T07:57:26;25.90;50.50
45868;DHT22;31582;45.490;7.860;2022-08-25T07:59:54;26.00;50.10
45868;DHT22;31582;45.490;7.860;2022-08-25T08:02:21;26.20;50.40
45868;DHT22;31582;45.490;7.860;2022-08-25T08:04:50;26.30;50.40
45868;DHT22;31582;45.490;7.860;2022-08-25T08:07:18;26.50;50.50
45868;DHT22;31582;45.490;7.860;2022-08-25T08:09:46;26.60;50.30
45868;DHT22;31582;45.490;7.860;2022-08-25T08:12:25;26.80;50.10
45868;DHT22;31582;45.490;7.860;2022-08-25T08:14:53;27.00;51.10
45868;DHT22;31582;45.490;7.860;2022-08-25T08:17:20;27.20;49.90
45868;DHT22;31582;45.490;7.860;2022-08-25T08:19:47;27.30;49.10
45868;DHT22;31582;45.490;7.860;2022-08-25T08:22:14;27.40;48.90
45868;DHT22;31582;45.490;7.860;2022-08-25T08:24:41;27.50;49.20
45868;DHT22;31582;45.490;7.860;2022-08-25T08:27:20;27.70;49.20
45868;DHT22;31582;45.490;7.860;2022-08-25T08:29:47;27.90;49.30
45868;DHT22;31582;45.490;7.860;2022-08-25T08:32:14;28.00;48.70
45868;DHT22;31582;45.490;7.860;2022-08-25T08:34:44;28.10;49.00
45868;DHT22;31582;45.490;7.860;2022-08-25T08:37:17;28.30;48.40
45868;DHT22;31582;45.490;7.860;2022-08-25T08:39:45;28.30;47.60
45868;DHT22;31582;45.490;7.860;2022-08-25T08:45:05;28.50;48.60
45868;DHT22;31582;45.490;7.860;2022-08-25T08:50:09;28.80;45.70
45868;DHT22;31582;45.490;7.860;2022-08-25T08:57:55;28.70;45.50
45868;DHT22;31582;45.490;7.860;2022-08-25T09:00:24;28.80;46.30
45868;DHT22;31582;45.490;7.860;2022-08-25T09:02:53;28.80;46.70
45868;DHT22;31582;45.490;7.860;2022-08-25T09:05:25;28.90;46.50
45868;DHT22;31582;45.490;7.860;2022-08-25T09:07:57;29.00;45.90
45868;DHT22;31582;45.490;7.860;2022-08-25T09:10:27;29.10;45.80
45868;DHT22;31582;45.490;7.860;2022-08-25T09:15:49;29.00;44.90
45868;DHT22;31582;45.490;7.860;2022-08-25T09:21:21;29.40;45.30
45868;DHT22;31582;45.490;7.860;2022-08-25T09:24:04;29.50;45.10
45868;DHT22;31582;45.490;7.860;2022-08-25T09:29:07;29.70;43.60
45868;DHT22;31582;45.490;7.860;2022-08-25T09:31:42;29.60;43.10
45868;DHT22;31582;45.490;7.860;2022-08-25T09:34:20;29.70;43.90
45868;DHT22;31582;45.490;7.860;2022-08-25T09:36:48;29.80;44.10
45868;DHT22;31582;45.490;7.860;2022-08-25T09:39:19;29.90;43.60
45868;DHT22;31582;45.490;7.860;2022-08-25T09:41:47;30.10;44.50
45868;DHT22;31582;45.490;7.860;2022-08-25T09:47:02;30.20;41.70
45868;DHT22;31582;45.490;7.860;2022-08-25T09:54:51;30.20;42.00
45868;DHT22;31582;45.490;7.860;2022-08-25T09:57:35;30.40;42.80
45868;DHT22;31582;45.490;7.860;2022-08-25T10:00:35;30.50;42.60
45868;DHT22;31582;45.490;7.860;2022-08-25T10:08:13;30.90;42.00
45868;DHT22;31582;45.490;7.860;2022-08-25T10:10:54;31.00;41.00
45868;DHT22;31582;45.490;7.860;2022-08-25T10:13:31;31.20;40.80
45868;DHT22;31582;45.490;7.860;2022-08-25T10:16:03;31.10;42.30
45868;DHT22;31582;45.490;7.860;2022-08-25T10:21:30;31.20;40.60
45868;DHT22;31582;45.490;7.860;2022-08-25T10:23:57;31.20;40.80
45868;DHT22;31582;45.490;7.860;2022-08-25T10:28:59;31.20;39.50
45868;DHT22;31582;45.490;7.860;2022-08-25T10:31:35;31.30;40.50
45868;DHT22;31582;45.490;7.860;2022-08-25T10:34:13;31.30;39.30
45868;DHT22;31582;45.490;7.860;2022-08-25T10:39:17;31.30;39.40
45868;DHT22;31582;45.490;7.860;2022-08-25T10:42:05;31.30;38.90
45868;DHT22;31582;45.490;7.860;2022-08-25T10:44:41;31.40;39.40
45868;DHT22;31582;45.490;7.860;2022-08-25T10:47:46;31.50;38.60
45868;DHT22;31582;45.490;7.860;2022-08-25T10:52:54;31.60;38.00
45868;DHT22;31582;45.490;7.860;2022-08-25T10:55:43;31.50;38.50
45868;DHT22;31582;45.490;7.860;2022-08-25T11:01:02;31.50;37.90
45868;DHT22;31582;45.490;7.860;2022-08-25T11:03:34;31.40;39.00
45868;DHT22;31582;45.490;7.860;2022-08-25T11:06:08;31.40;37.80
45868;DHT22;31582;45.490;7.860;2022-08-25T11:08:39;31.40;38.70
45868;DHT22;31582;45.490;7.860;2022-08-25T11:14:00;31.80;38.60
45868;DHT22;31582;45.490;7.860;2022-08-25T11:16:44;31.90;38.10
45868;DHT22;31582;45.490;7.860;2022-08-25T11:19:58;32.10;37.90
45868;DHT22;31582;45.490;7.860;2022-08-25T11:27:08;32.70;36.60
45868;DHT22;31582;45.490;7.860;2022-08-25T11:29:39;32.70;35.70
45868;DHT22;31582;45.490;7.860;2022-08-25T11:32:07;32.70;36.50
45868;DHT22;31582;45.490;7.860;2022-08-25T11:34:35;32.80;36.20
45868;DHT22;31582;45.490;7.860;2022-08-25T11:40:18;33.00;35.50
45868;DHT22;31582;45.490;7.860;2022-08-25T11:50:26;33.40;35.30
45868;DHT22;31582;45.490;7.860;2022-08-25T11:52:56;33.40;35.30
45868;DHT22;31582;45.490;7.860;2022-08-25T12:00:59;33.40;34.10
45868;DHT22;31582;45.490;7.860;2022-08-25T12:03:44;33.40;34.50
45868;DHT22;31582;45.490;7.860;2022-08-25T12:19:25;33.70;34.20
45868;DHT22;31582;45.490;7.860;2022-08-25T12:33:06;34.00;33.40
45868;DHT22;31582;45.490;7.860;2022-08-25T12:35:38;34.20;32.20
45868;DHT22;31582;45.490;7.860;2022-08-25T12:40:35;34.40;31.80
45868;DHT22;31582;45.490;7.860;2022-08-25T12:43:08;34.50;32.20
45868;DHT22;31582;45.490;7.860;2022-08-25T12:45:37;34.60;31.40
45868;DHT22;31582;45.490;7.860;2022-08-25T12:50:56;34.70;31.30
45868;DHT22;31582;45.490;7.860;2022-08-25T12:53:35;34.80;32.20
45868;DHT22;31582;45.490;7.860;2022-08-25T12:56:07;35.10;30.60
45868;DHT22;31582;45.490;7.860;2022-08-25T12:58:56;35.30;31.40
45868;DHT22;31582;45.490;7.860;2022-08-25T13:01:46;35.30;30.60
45868;DHT22;31582;45.490;7.860;2022-08-25T13:10:06;35.70;30.70
45868;DHT22;31582;45.490;7.860;2022-08-25T13:15:37;35.90;30.00
45868;DHT22;31582;45.490;7.860;2022-08-25T13:18:13;35.90;29.90
45868;DHT22;31582;45.490;7.860;2022-08-25T13:20:42;35.90;29.50
45868;DHT22;31582;45.490;7.860;2022-08-25T13:23:09;35.80;29.20
45868;DHT22;31582;45.490;7.860;2022-08-25T13:25:38;35.70;29.20
45868;DHT22;31582;45.490;7.860;2022-08-25T13:28:22;35.70;29.80
45868;DHT22;31582;45.490;7.860;2022-08-25T13:30:55;35.70;29.40
45868;DHT22;31582;45.490;7.860;2022-08-25T13:33:22;35.60;29.40
45868;DHT22;31582;45.490;7.860;2022-08-25T13:35:54;35.40;29.70
45868;DHT22;31582;45.490;7.860;2022-08-25T13:38:40;35.50;30.20
45868;DHT22;31582;45.490;7.860;2022-08-25T13:41:15;35.60;29.80
45868;DHT22;31582;45.490;7.860;2022-08-25T13:43:43;35.70;29.60
45868;DHT22;31582;45.490;7.860;2022-08-25T13:46:11;35.80;29.10
45868;DHT22;31582;45.490;7.860;2022-08-25T13:48:40;35.80;29.00
45868;DHT22;31582;45.490;7.860;2022-08-25T13:51:22;35.80;29.70
45868;DHT22;31582;45.490;7.860;2022-08-25T13:54:00;36.00;30.30
45868;DHT22;31582;45.490;7.860;2022-08-25T13:56:38;36.20;29.30
45868;DHT22;31582;45.490;7.860;2022-08-25T13:59:23;36.50;28.50
45868;DHT22;31582;45.490;7.860;2022-08-25T14:01:52;36.60;28.20
45868;DHT22;31582;45.490;7.860;2022-08-25T14:06:46;36.70;28.50
45868;DHT22;31582;45.490;7.860;2022-08-25T14:09:15;36.80;28.20
45868;DHT22;31582;45.490;7.860;2022-08-25T14:11:47;36.80;28.70
45868;DHT22;31582;45.490;7.860;2022-08-25T14:16:52;36.50;29.00
45868;DHT22;31582;45.490;7.860;2022-08-25T14:19:22;36.30;28.60
45868;DHT22;31582;45.490;7.860;2022-08-25T14:21:50;36.20;28.60
45868;DHT22;31582;45.490;7.860;2022-08-25T14:24:22;36.20;28.80
45868;DHT22;31582;45.490;7.860;2022-08-25T14:26:50;36.30;28.80
45868;DHT22;31582;45.490;7.860;2022-08-25T14:29:20;36.00;27.90
45868;DHT22;31582;45.490;7.860;2022-08-25T14:31:48;35.90;28.70
45868;DHT22;31582;45.490;7.860;2022-08-25T14:34:18;36.00;29.10
45868;DHT22;31582;45.490;7.860;2022-08-25T14:36:48;36.20;29.20
45868;DHT22;31582;45.490;7.860;2022-08-25T14:39:16;36.20;28.70
45868;DHT22;31582;45.490;7.860;2022-08-25T14:41:44;36.40;29.00
45868;DHT22;31582;45.490;7.860;2022-08-25T14:44:20;36.40;28.80
45868;DHT22;31582;45.490;7.860;2022-08-25T14:46:53;36.50;28.00
45868;DHT22;31582;45.490;7.860;2022-08-25T14:49:25;36.50;28.10
45868;DHT22;31582;45.490;7.860;2022-08-25T14:51:56;36.40;28.40
45868;DHT22;31582;45.490;7.860;2022-08-25T14:54:26;36.50;28.60
45868;DHT22;31582;45.490;7.860;2022-08-25T14:56:54;36.60;28.60
45868;DHT22;31582;45.490;7.860;2022-08-25T14:59:22;36.70;28.50
45868;DHT22;31582;45.490;7.860;2022-08-25T15:01:50;36.60;28.40
45868;DHT22;31582;45.490;7.860;2022-08-25T15:04:19;36.80;29.80
45868;DHT22;31582;45.490;7.860;2022-08-25T15:06:52;37.00;28.60
45868;DHT22;31582;45.490;7.860;2022-08-25T15:09:20;36.90;27.80
45868;DHT22;31582;45.490;7.860;2022-08-25T15:11:49;36.50;28.40
45868;DHT22;31582;45.490;7.860;2022-08-25T15:14:18;36.30;28.60
45868;DHT22;31582;45.490;7.860;2022-08-25T15:16:59;36.00;28.40
45868;DHT22;31582;45.490;7.860;2022-08-25T15:19:27;35.90;28.60
45868;DHT22;31582;45.490;7.860;2022-08-25T15:21:54;35.80;29.00
45868;DHT22;31582;45.490;7.860;2022-08-25T15:24:25;36.00;29.50
45868;DHT22;31582;45.490;7.860;2022-08-25T15:26:58;36.00;29.00
45868;DHT22;31582;45.490;7.860;2022-08-25T15:29:27;35.80;29.00
45868;DHT22;31582;45.490;7.860;2022-08-25T15:31:57;35.60;29.20
45868;DHT22;31582;45.490;7.860;2022-08-25T15:34:25;35.40;29.20
45868;DHT22;31582;45.490;7.860;2022-08-25T15:36:54;35.20;29.30
45868;DHT22;31582;45.490;7.860;2022-08-25T15:39:21;35.20;30.00
45868;DHT22;31582;45.490;7.860;2022-08-25T15:41:48;35.30;30.00
45868;DHT22;31582;45.490;7.860;2022-08-25T15:44:17;35.30;29.90
45868;DHT22;31582;45.490;7.860;2022-08-25T15:46:45;35.20;29.80
45868;DHT22;31582;45.490;7.860;2022-08-25T15:49:16;35.30;30.00
45868;DHT22;31582;45.490;7.860;2022-08-25T15:51:50;35.40;30.00
45868;DHT22;31582;45.490;7.860;2022-08-25T15:54:18;35.50;30.00
45868;DHT22;31582;45.490;7.860;2022-08-25T15:56:46;35.80;30.00
45868;DHT22;31582;45.490;7.860;2022-08-25T15:59:13;35.80;29.40
45868;DHT22;31582;45.490;7.860;2022-08-25T16:01:40;36.00;28.90
45868;DHT22;31582;45.490;7.860;2022-08-25T16:04:09;36.00;29.10
45868;DHT22;31582;45.490;7.860;2022-08-25T16:06:37;36.00;29.20
45868;DHT22;31582;45.490;7.860;2022-08-25T16:09:05;36.10;29.10
45868;DHT22;31582;45.490;7.860;2022-08-25T16:11:33;36.10;28.70
45868;DHT22;31582;45.490;7.860;2022-08-25T16:14:04;36.10;29.00
45868;DHT22;31582;45.490;7.860;2022-08-25T16:16:32;36.00;28.90
45868;DHT22;31582;45.490;7.860;2022-08-25T16:19:00;35.80;29.10
45868;DHT22;31582;45.490;7.860;2022-08-25T16:21:31;35.50;29.30
45868;DHT22;31582;45.490;7.860;2022-08-25T16:24:01;35.20;29.80
45868;DHT22;31582;45.490;7.860;2022-08-25T16:26:33;35.10;30.60
45868;DHT22;31582;45.490;7.860;2022-08-25T16:29:03;34.90;30.70
45868;DHT22;31582;45.490;7.860;2022-08-25T16:31:32;34.70;30.50
45868;DHT22;31582;45.490;7.860;2022-08-25T16:33:59;34.60;30.50
45868;DHT22;31582;45.490;7.860;2022-08-25T16:36:27;34.50;31.20
45868;DHT22;31582;45.490;7.860;2022-08-25T16:38:54;34.40;31.50
45868;DHT22;31582;45.490;7.860;2022-08-25T16:41:23;34.30;31.90
45868;DHT22;31582;45.490;7.860;2022-08-25T16:43:50;34.20;33.00
45868;DHT22;31582;45.490;7.860;2022-08-25T16:46:18;33.90;34.00
45868;DHT22;31582;45.490;7.860;2022-08-25T16:48:46;33.80;35.00
45868;DHT22;31582;45.490;7.860;2022-08-25T16:51:15;33.60;36.10
45868;DHT22;31582;45.490;7.860;2022-08-25T16:53:45;33.30;36.60
45868;DHT22;31582;45.490;7.860;2022-08-25T16:56:32;33.00;36.80
45868;DHT22;31582;45.490;7.860;2022-08-25T16:59:02;32.70;37.50
45868;DHT22;31582;45.490;7.860;2022-08-25T17:01:31;32.40;38.10
45868;DHT22;31582;45.490;7.860;2022-08-25T17:03:59;32.20;38.50
45868;DHT22;31582;45.490;7.860;2022-08-25T17:06:27;32.10;39.50
45868;DHT22;31582;45.490;7.860;2022-08-25T17:08:54;31.90;39.70
45868;DHT22;31582;45.490;7.860;2022-08-25T17:11:23;31.80;40.80
45868;DHT22;31582;45.490;7.860;2022-08-25T17:13:52;31.70;40.90
45868;DHT22;31582;45.490;7.860;2022-08-25T17:16:21;31.60;41.10
45868;DHT22;31582;45.490;7.860;2022-08-25T17:18:50;31.50;41.10
45868;DHT22;31582;45.490;7.860;2022-08-25T17:21:18;31.40;41.30
45868;DHT22;31582;45.490;7.860;2022-08-25T17:23:50;31.20;41.40
45868;DHT22;31582;45.490;7.860;2022-08-25T17:26:18;31.00;42.00
45868;DHT22;31582;45.490;7.860;2022-08-25T17:28:53;30.90;42.80
45868;DHT22;31582;45.490;7.860;2022-08-25T17:31:21;30.80;43.00
45868;DHT22;31582;45.490;7.860;2022-08-25T17:33:49;30.70;43.50
45868;DHT22;31582;45.490;7.860;2022-08-25T17:36:17;30.60;43.80
45868;DHT22;31582;45.490;7.860;2022-08-25T17:38:44;30.50;43.70
45868;DHT22;31582;45.490;7.860;2022-08-25T17:41:11;30.30;44.00
45868;DHT22;31582;45.490;7.860;2022-08-25T17:43:39;30.30;44.10